Lubbock, TX

8:24 PM CDT on July 29, 2015 (GMT -0500)
Atkins Middle School | | Change Station
CLOSE
Current Station
Personal Weather Station
Location: Lubbock, TX
Elevation: 3232 ft
Nearby Weather Stations

Elev 3232 ft 33.54 °N, 101.86 °W | Updated 1 second ago

Partly Cloudy
Partly Cloudy
87.6 °F
Feels Like 88 °F
N
0.0
Wind Variable Wind from ESE
Gusts 0.0 mph

Today
High -- | Low -- °F
--% Chance of Precip.
Yesterday
High -- | Low -- °F
Precip. -- in
6:57 AM 8:49 PM
Waxing Gibbous, 97% visible
Pressure 29.95 in
Visibility 10.0 miles
Clouds Few 6500 ft
Scattered Clouds 30000 ft
Heat Index 88 °F
Dew Point 62 °F
Humidity 42%
Rainfall 0.00 in
Snow Depth Not available.
UV 0.0 out of 12
Pollen 4.00 out of 12
Air Quality Not available.
Flu Activity Not available.
METAR KLBB 300053Z 06010KT 10SM FEW065 SCT300 32/18 A3011 RMK AO2 SLP140 CB DSNT W AND NW STNRY T03170178

More Conditions Fewer Conditions

Pressure 29.95 in
Visibility 10.0 miles
Clouds Few 6500 ft
Scattered Clouds 30000 ft
Heat Index 88 °F
Dew Point 62 °F
Humidity 42%
Rainfall 0.00 in
Snow Depth Not available.
UV 0.0 out of 12
Pollen 4.00 out of 12
Air Quality Not available.
Flu Activity Not available.
METAR KLBB 300053Z 06010KT 10SM FEW065 SCT300 32/18 A3011 RMK AO2 SLP140 CB DSNT W AND NW STNRY T03170178

More Conditions Fewer Conditions

Nowcast | as of 7:57 PM CDT on July 29, 2015

Through 9 PM...very isolated showers and thunderstorms will continue to develop across the rolling plains...South Plains...and extreme southern Texas Panhandle. Brief heavy downpours and occasional cloud to ground lightning will be the main threats with this activity as it slowly drifts west

×

10-Day Weather Forecast

×

Almanac

Astronomy

Jul. 29, 2015 Rise Set
Actual Time
Civil Twilight
Nautical Twilight
Astronomical Twilight
Moon
Length of Visible Light
Length of Day
Tomorrow will be .
, % of the Moon is Illuminated

Today's Extremes

State Highs State Lows

Community

WunderPhotos

Upload Photos

1,842,245 photos uploaded!

WunderBlogs® & News

Nearby

Air Quality

  Air Quality AQ Index Pollutant
Not available.

Snow Depth

Station Depth Elevation

Earthquake Activity

City Distance Mag. Time & Date
Minimum magnitude displayed is 2.5.

Coastal Water Temperatures

Place Temperature

Stations

Nearby Weather Stations

Station Location Temp. Windchill Dew Point Humidity Wind Precip. Elev Updated Type